sensor_id;sensor_type;location;lat;lon;timestamp;pressure;altitude;pressure_sealevel;temperature;humidity
52535;BME280;38443;53.164;5.802;2023-03-21T00:00:37;101675.59;;;6.96;100.00
52535;BME280;38443;53.164;5.802;2023-03-21T00:03:03;101676.47;;;6.96;100.00
52535;BME280;38443;53.164;5.802;2023-03-21T00:05:29;101679.13;;;6.96;100.00
52535;BME280;38443;53.164;5.802;2023-03-21T00:07:54;101680.00;;;6.95;100.00
52535;BME280;38443;53.164;5.802;2023-03-21T00:10:21;101669.34;;;6.95;100.00
52535;BME280;38443;53.164;5.802;2023-03-21T00:12:46;101661.38;;;6.95;100.00
52535;BME280;38443;53.164;5.802;2023-03-21T00:15:15;101665.81;;;6.96;100.00
52535;BME280;38443;53.164;5.802;2023-03-21T00:17:42;101665.81;;;6.96;100.00
52535;BME280;38443;53.164;5.802;2023-03-21T00:20:09;101664.91;;;6.97;100.00
52535;BME280;38443;53.164;5.802;2023-03-21T00:22:40;101662.25;;;6.97;100.00
52535;BME280;38443;53.164;5.802;2023-03-21T00:25:08;101656.06;;;7.00;100.00
52535;BME280;38443;53.164;5.802;2023-03-21T00:27:34;101659.59;;;6.99;100.00
52535;BME280;38443;53.164;5.802;2023-03-21T00:30:00;101659.59;;;7.01;100.00
52535;BME280;38443;53.164;5.802;2023-03-21T00:32:26;101660.47;;;6.99;100.00
52535;BME280;38443;53.164;5.802;2023-03-21T00:34:51;101653.41;;;7.00;100.00
52535;BME280;38443;53.164;5.802;2023-03-21T00:37:16;101656.06;;;6.98;100.00
52535;BME280;38443;53.164;5.802;2023-03-21T00:39:44;101654.28;;;7.01;100.00
52535;BME280;38443;53.164;5.802;2023-03-21T00:42:13;101643.63;;;6.99;100.00
52535;BME280;38443;53.164;5.802;2023-03-21T00:44:39;101650.75;;;7.02;100.00
52535;BME280;38443;53.164;5.802;2023-03-21T00:47:06;101646.28;;;7.01;100.00
52535;BME280;38443;53.164;5.802;2023-03-21T00:49:31;101646.28;;;7.01;100.00
52535;BME280;38443;53.164;5.802;2023-03-21T00:51:59;101648.06;;;7.00;100.00
52535;BME280;38443;53.164;5.802;2023-03-21T00:54:24;101645.41;;;7.02;100.00
52535;BME280;38443;53.164;5.802;2023-03-21T00:56:50;101651.63;;;7.01;100.00
52535;BME280;38443;53.164;5.802;2023-03-21T00:59:15;101645.41;;;7.00;100.00
52535;BME280;38443;53.164;5.802;2023-03-21T01:01:41;101638.31;;;6.99;100.00
52535;BME280;38443;53.164;5.802;2023-03-21T01:04:06;101638.31;;;7.01;100.00
52535;BME280;38443;53.164;5.802;2023-03-21T01:06:37;101640.97;;;7.01;100.00
52535;BME280;38443;53.164;5.802;2023-03-21T01:09:18;101635.66;;;7.01;100.00
52535;BME280;38443;53.164;5.802;2023-03-21T01:11:44;101630.31;;;7.02;100.00
52535;BME280;38443;53.164;5.802;2023-03-21T01:14:10;101630.31;;;7.01;100.00
52535;BME280;38443;53.164;5.802;2023-03-21T01:16:36;101626.78;;;7.00;100.00
52535;BME280;38443;53.164;5.802;2023-03-21T01:19:01;101626.78;;;7.00;100.00
52535;BME280;38443;53.164;5.802;2023-03-21T01:21:27;101624.13;;;7.00;100.00
52535;BME280;38443;53.164;5.802;2023-03-21T01:23:52;101617.88;;;7.01;100.00
52535;BME280;38443;53.164;5.802;2023-03-21T01:26:17;101624.13;;;7.02;100.00
52535;BME280;38443;53.164;5.802;2023-03-21T01:28:43;101618.81;;;7.02;100.00
52535;BME280;38443;53.164;5.802;2023-03-21T01:31:11;101620.56;;;7.01;100.00
52535;BME280;38443;53.164;5.802;2023-03-21T01:33:36;101620.56;;;7.01;100.00
52535;BME280;38443;53.164;5.802;2023-03-21T01:36:02;101622.34;;;7.02;100.00
52535;BME280;38443;53.164;5.802;2023-03-21T01:38:28;101617.00;;;7.01;100.00
52535;BME280;38443;53.164;5.802;2023-03-21T01:40:53;101612.56;;;7.01;100.00
52535;BME280;38443;53.164;5.802;2023-03-21T01:43:28;101605.50;;;7.02;100.00
52535;BME280;38443;53.164;5.802;2023-03-21T01:49:01;101612.56;;;7.03;100.00
52535;BME280;38443;53.164;5.802;2023-03-21T01:51:29;101600.16;;;7.02;100.00
52535;BME280;38443;53.164;5.802;2023-03-21T01:53:57;101599.25;;;7.03;100.00
52535;BME280;38443;53.164;5.802;2023-03-21T01:58:50;101592.19;;;7.02;100.00
52535;BME280;38443;53.164;5.802;2023-03-21T02:01:19;101589.53;;;7.02;100.00
52535;BME280;38443;53.164;5.802;2023-03-21T02:03:47;101581.53;;;7.02;100.00
52535;BME280;38443;53.164;5.802;2023-03-21T02:06:28;101584.19;;;7.02;100.00
52535;BME280;38443;53.164;5.802;2023-03-21T02:08:59;101579.75;;;7.01;100.00
52535;BME280;38443;53.164;5.802;2023-03-21T02:11:26;101586.84;;;7.02;100.00
52535;BME280;38443;53.164;5.802;2023-03-21T02:13:53;101591.28;;;7.03;100.00
52535;BME280;38443;53.164;5.802;2023-03-21T02:16:31;101579.75;;;7.01;100.00
52535;BME280;38443;53.164;5.802;2023-03-21T02:22:13;101572.63;;;7.01;100.00
52535;BME280;38443;53.164;5.802;2023-03-21T02:27:26;101565.56;;;7.00;100.00
52535;BME280;38443;53.164;5.802;2023-03-21T02:30:20;101570.88;;;7.00;100.00
52535;BME280;38443;53.164;5.802;2023-03-21T02:33:10;101563.78;;;7.01;100.00
52535;BME280;38443;53.164;5.802;2023-03-21T02:35:56;101561.13;;;7.01;100.00
52535;BME280;38443;53.164;5.802;2023-03-21T02:41:02;101558.47;;;7.01;100.00
52535;BME280;38443;53.164;5.802;2023-03-21T02:43:36;101556.66;;;7.01;100.00
52535;BME280;38443;53.164;5.802;2023-03-21T02:48:48;101546.94;;;7.02;100.00
52535;BME280;38443;53.164;5.802;2023-03-21T02:51:18;101541.63;;;7.02;100.00
52535;BME280;38443;53.164;5.802;2023-03-21T02:53:49;101547.81;;;7.04;100.00
52535;BME280;38443;53.164;5.802;2023-03-21T02:56:18;101542.50;;;7.04;100.00
52535;BME280;38443;53.164;5.802;2023-03-21T02:58:44;101540.72;;;7.04;100.00
52535;BME280;38443;53.164;5.802;2023-03-21T03:01:11;101540.72;;;7.04;100.00
52535;BME280;38443;53.164;5.802;2023-03-21T03:03:36;101536.25;;;7.03;100.00
52535;BME280;38443;53.164;5.802;2023-03-21T03:06:12;101538.03;;;7.04;100.00
52535;BME280;38443;53.164;5.802;2023-03-21T03:10:02;101534.50;;;7.04;100.00
52535;BME280;38443;53.164;5.802;2023-03-21T03:12:02;101530.94;;;7.03;100.00
52535;BME280;38443;53.164;5.802;2023-03-21T03:14:44;101527.41;;;7.03;100.00
52535;BME280;38443;53.164;5.802;2023-03-21T03:17:23;101532.72;;;7.04;100.00
52535;BME280;38443;53.164;5.802;2023-03-21T03:20:06;101524.75;;;7.04;100.00
52535;BME280;38443;53.164;5.802;2023-03-21T03:26:16;101526.53;;;7.04;100.00
52535;BME280;38443;53.164;5.802;2023-03-21T03:28:23;101530.94;;;7.05;100.00
52535;BME280;38443;53.164;5.802;2023-03-21T03:30:50;101519.41;;;7.04;100.00
52535;BME280;38443;53.164;5.802;2023-03-21T03:33:17;101519.41;;;7.04;100.00
52535;BME280;38443;53.164;5.802;2023-03-21T03:35:48;101522.94;;;7.05;100.00
52535;BME280;38443;53.164;5.802;2023-03-21T03:38:15;101518.53;;;7.04;100.00
52535;BME280;38443;53.164;5.802;2023-03-21T03:40:51;101515.88;;;7.04;100.00
52535;BME280;38443;53.164;5.802;2023-03-21T03:43:22;101517.63;;;7.03;100.00
52535;BME280;38443;53.164;5.802;2023-03-21T03:45:58;101516.75;;;7.04;100.00
52535;BME280;38443;53.164;5.802;2023-03-21T03:48:33;101504.31;;;7.05;100.00
52535;BME280;38443;53.164;5.802;2023-03-21T03:51:09;101505.19;;;7.05;100.00
52535;BME280;38443;53.164;5.802;2023-03-21T03:53:42;101508.78;;;7.06;100.00
52535;BME280;38443;53.164;5.802;2023-03-21T03:56:11;101504.31;;;7.05;100.00
52535;BME280;38443;53.164;5.802;2023-03-21T03:58:37;101499.00;;;7.06;100.00
52535;BME280;38443;53.164;5.802;2023-03-21T04:01:06;101501.66;;;7.05;100.00
52535;BME280;38443;53.164;5.802;2023-03-21T04:03:34;101497.22;;;7.05;100.00
52535;BME280;38443;53.164;5.802;2023-03-21T04:06:01;101492.78;;;7.06;100.00
52535;BME280;38443;53.164;5.802;2023-03-21T04:08:28;101502.53;;;7.07;100.00
52535;BME280;38443;53.164;5.802;2023-03-21T04:10:54;101496.34;;;7.06;100.00
52535;BME280;38443;53.164;5.802;2023-03-21T04:13:20;101500.78;;;7.06;100.00
52535;BME280;38443;53.164;5.802;2023-03-21T04:15:45;101500.78;;;7.04;100.00
52535;BME280;38443;53.164;5.802;2023-03-21T04:18:11;101499.88;;;7.05;100.00
52535;BME280;38443;53.164;5.802;2023-03-21T04:20:36;101502.53;;;7.05;100.00
52535;BME280;38443;53.164;5.802;2023-03-21T04:23:01;101496.34;;;7.05;100.00
52535;BME280;38443;53.164;5.802;2023-03-21T04:25:27;101486.59;;;7.04;100.00
52535;BME280;38443;53.164;5.802;2023-03-21T04:27:52;101483.03;;;7.05;100.00
52535;BME280;38443;53.164;5.802;2023-03-21T04:30:19;101487.47;;;7.06;100.00
52535;BME280;38443;53.164;5.802;2023-03-21T04:32:44;101485.69;;;7.05;100.00
52535;BME280;38443;53.164;5.802;2023-03-21T04:35:18;101486.56;;;7.07;100.00
52535;BME280;38443;53.164;5.802;2023-03-21T04:37:44;101479.50;;;7.06;100.00
52535;BME280;38443;53.164;5.802;2023-03-21T04:40:09;101479.50;;;7.06;100.00
52535;BME280;38443;53.164;5.802;2023-03-21T04:42:35;101478.56;;;7.07;100.00
52535;BME280;38443;53.164;5.802;2023-03-21T04:45:01;101472.38;;;7.06;100.00
52535;BME280;38443;53.164;5.802;2023-03-21T04:47:26;101480.38;;;7.06;100.00
52535;BME280;38443;53.164;5.802;2023-03-21T04:49:52;101468.81;;;7.07;100.00
52535;BME280;38443;53.164;5.802;2023-03-21T04:52:18;101470.59;;;7.07;100.00
52535;BME280;38443;53.164;5.802;2023-03-21T04:54:43;101472.38;;;7.08;100.00
52535;BME280;38443;53.164;5.802;2023-03-21T04:57:08;101461.72;;;7.08;100.00
52535;BME280;38443;53.164;5.802;2023-03-21T04:59:34;101468.81;;;7.07;100.00
52535;BME280;38443;53.164;5.802;2023-03-21T05:02:00;101462.59;;;7.07;100.00
52535;BME280;38443;53.164;5.802;2023-03-21T05:04:26;101457.28;;;7.07;100.00
52535;BME280;38443;53.164;5.802;2023-03-21T05:06:53;101467.94;;;7.08;100.00
52535;BME280;38443;53.164;5.802;2023-03-21T05:09:19;101467.94;;;7.08;100.00
52535;BME280;38443;53.164;5.802;2023-03-21T05:11:44;101459.94;;;7.08;100.00
52535;BME280;38443;53.164;5.802;2023-03-21T05:14:13;101467.03;;;7.09;100.00
52535;BME280;38443;53.164;5.802;2023-03-21T05:16:41;101460.81;;;7.07;100.00
52535;BME280;38443;53.164;5.802;2023-03-21T05:19:13;101463.47;;;7.09;100.00
52535;BME280;38443;53.164;5.802;2023-03-21T05:21:39;101459.06;;;7.08;100.00
52535;BME280;38443;53.164;5.802;2023-03-21T05:24:08;101472.38;;;7.08;100.00
52535;BME280;38443;53.164;5.802;2023-03-21T05:26:40;101463.47;;;7.09;100.00
52535;BME280;38443;53.164;5.802;2023-03-21T05:29:07;101456.41;;;7.08;100.00
52535;BME280;38443;53.164;5.802;2023-03-21T05:31:32;101463.47;;;7.09;100.00
52535;BME280;38443;53.164;5.802;2023-03-21T05:33:57;101459.06;;;7.08;100.00
52535;BME280;38443;53.164;5.802;2023-03-21T05:36:23;101457.28;;;7.08;100.00
52535;BME280;38443;53.164;5.802;2023-03-21T05:38:49;101464.41;;;7.08;100.00
52535;BME280;38443;53.164;5.802;2023-03-21T05:41:16;101466.16;;;7.09;100.00
52535;BME280;38443;53.164;5.802;2023-03-21T05:43:42;101469.69;;;7.09;100.00
52535;BME280;38443;53.164;5.802;2023-03-21T05:46:07;101458.16;;;7.09;100.00
52535;BME280;38443;53.164;5.802;2023-03-21T05:48:33;101461.69;;;7.09;100.00
52535;BME280;38443;53.164;5.802;2023-03-21T05:50:59;101462.59;;;7.10;100.00
52535;BME280;38443;53.164;5.802;2023-03-21T05:53:24;101461.69;;;7.09;100.00
52535;BME280;38443;53.164;5.802;2023-03-21T05:55:49;101462.59;;;7.10;100.00
52535;BME280;38443;53.164;5.802;2023-03-21T05:58:15;101465.25;;;7.11;100.00
52535;BME280;38443;53.164;5.802;2023-03-21T06:00:40;101462.56;;;7.11;100.00
52535;BME280;38443;53.164;5.802;2023-03-21T06:03:05;101459.03;;;7.12;100.00
52535;BME280;38443;53.164;5.802;2023-03-21T06:05:30;101466.13;;;7.13;100.00
52535;BME280;38443;53.164;5.802;2023-03-21T06:07:56;101462.56;;;7.14;100.00
52535;BME280;38443;53.164;5.802;2023-03-21T06:10:21;101465.25;;;7.14;100.00
52535;BME280;38443;53.164;5.802;2023-03-21T06:12:46;101463.44;;;7.15;100.00
52535;BME280;38443;53.164;5.802;2023-03-21T06:15:12;101455.47;;;7.16;100.00
52535;BME280;38443;53.164;5.802;2023-03-21T06:17:37;101467.00;;;7.17;100.00
52535;BME280;38443;53.164;5.802;2023-03-21T06:20:05;101459.88;;;7.17;100.00
52535;BME280;38443;53.164;5.802;2023-03-21T06:22:32;101469.66;;;7.18;100.00
52535;BME280;38443;53.164;5.802;2023-03-21T06:24:58;101460.78;;;7.18;100.00
52535;BME280;38443;53.164;5.802;2023-03-21T06:27:23;101452.81;;;7.18;100.00
52535;BME280;38443;53.164;5.802;2023-03-21T06:29:49;101462.53;;;7.21;100.00
52535;BME280;38443;53.164;5.802;2023-03-21T06:32:14;101463.41;;;7.21;100.00
52535;BME280;38443;53.164;5.802;2023-03-21T06:34:40;101460.75;;;7.19;100.00
52535;BME280;38443;53.164;5.802;2023-03-21T06:37:05;101458.09;;;7.23;100.00
52535;BME280;38443;53.164;5.802;2023-03-21T06:39:31;101456.31;;;7.22;100.00
52535;BME280;38443;53.164;5.802;2023-03-21T06:41:57;101467.88;;;7.24;100.00
52535;BME280;38443;53.164;5.802;2023-03-21T06:44:22;101459.88;;;7.24;100.00
52535;BME280;38443;53.164;5.802;2023-03-21T06:46:48;101458.09;;;7.23;100.00
52535;BME280;38443;53.164;5.802;2023-03-21T06:49:14;101455.44;;;7.24;100.00
52535;BME280;38443;53.164;5.802;2023-03-21T06:51:40;101457.19;;;7.25;100.00
52535;BME280;38443;53.164;5.802;2023-03-21T06:54:05;101459.84;;;7.27;100.00
52535;BME280;38443;53.164;5.802;2023-03-21T06:56:30;101457.19;;;7.28;100.00
52535;BME280;38443;53.164;5.802;2023-03-21T06:58:55;101460.72;;;7.27;100.00
52535;BME280;38443;53.164;5.802;2023-03-21T07:01:21;101465.16;;;7.28;100.00
52535;BME280;38443;53.164;5.802;2023-03-21T07:03:46;101463.38;;;7.29;100.00
52535;BME280;38443;53.164;5.802;2023-03-21T07:06:11;101460.72;;;7.30;100.00
52535;BME280;38443;53.164;5.802;2023-03-21T07:08:37;101461.59;;;7.31;100.00
52535;BME280;38443;53.164;5.802;2023-03-21T07:11:03;101461.59;;;7.32;100.00
52535;BME280;38443;53.164;5.802;2023-03-21T07:13:29;101462.47;;;7.33;100.00
52535;BME280;38443;53.164;5.802;2023-03-21T07:15:55;101459.81;;;7.33;100.00
52535;BME280;38443;53.164;5.802;2023-03-21T07:18:20;101460.69;;;7.35;100.00
52535;BME280;38443;53.164;5.802;2023-03-21T07:20:46;101465.13;;;7.36;100.00
52535;BME280;38443;53.164;5.802;2023-03-21T07:23:20;101465.13;;;7.36;100.00
52535;BME280;38443;53.164;5.802;2023-03-21T07:25:50;101469.53;;;7.37;100.00
52535;BME280;38443;53.164;5.802;2023-03-21T07:28:16;101461.56;;;7.37;100.00
52535;BME280;38443;53.164;5.802;2023-03-21T07:30:42;101449.13;;;7.37;100.00
52535;BME280;38443;53.164;5.802;2023-03-21T07:33:07;101460.63;;;7.39;100.00
52535;BME280;38443;53.164;5.802;2023-03-21T07:35:33;101464.22;;;7.40;100.00
52535;BME280;38443;53.164;5.802;2023-03-21T07:38:00;101456.22;;;7.40;100.00
52535;BME280;38443;53.164;5.802;2023-03-21T07:40:25;101463.31;;;7.41;100.00
52535;BME280;38443;53.164;5.802;2023-03-21T07:42:50;101454.44;;;7.42;100.00
52535;BME280;38443;53.164;5.802;2023-03-21T07:45:16;101457.06;;;7.44;100.00
52535;BME280;38443;53.164;5.802;2023-03-21T07:47:45;101452.63;;;7.46;100.00
52535;BME280;38443;53.164;5.802;2023-03-21T07:50:11;101457.97;;;7.46;100.00
52535;BME280;38443;53.164;5.802;2023-03-21T07:52:36;101450.84;;;7.43;100.00
52535;BME280;38443;53.164;5.802;2023-03-21T07:55:02;101456.19;;;7.43;100.00
52535;BME280;38443;53.164;5.802;2023-03-21T07:57:27;101459.75;;;7.41;100.00
52535;BME280;38443;53.164;5.802;2023-03-21T07:59:53;101449.97;;;7.41;100.00
52535;BME280;38443;53.164;5.802;2023-03-21T08:02:18;101453.56;;;7.38;100.00
52535;BME280;38443;53.164;5.802;2023-03-21T08:04:43;101457.09;;;7.39;100.00
52535;BME280;38443;53.164;5.802;2023-03-21T08:07:09;101456.22;;;7.38;100.00
52535;BME280;38443;53.164;5.802;2023-03-21T08:09:35;101442.91;;;7.40;100.00
52535;BME280;38443;53.164;5.802;2023-03-21T08:12:01;101461.50;;;7.43;100.00
52535;BME280;38443;53.164;5.802;2023-03-21T08:14:26;101450.84;;;7.45;100.00
52535;BME280;38443;53.164;5.802;2023-03-21T08:16:52;101446.41;;;7.45;100.00
52535;BME280;38443;53.164;5.802;2023-03-21T08:19:17;101449.06;;;7.44;100.00
52535;BME280;38443;53.164;5.802;2023-03-21T08:21:45;101441.06;;;7.45;100.00
52535;BME280;38443;53.164;5.802;2023-03-21T08:24:10;101438.41;;;7.47;100.00
52535;BME280;38443;53.164;5.802;2023-03-21T08:26:35;101433.97;;;7.47;100.00
52535;BME280;38443;53.164;5.802;2023-03-21T08:29:00;101437.50;;;7.49;100.00
52535;BME280;38443;53.164;5.802;2023-03-21T08:31:26;101431.28;;;7.52;100.00
52535;BME280;38443;53.164;5.802;2023-03-21T08:33:52;101431.28;;;7.52;100.00
52535;BME280;38443;53.164;5.802;2023-03-21T08:36:18;101436.63;;;7.50;100.00
52535;BME280;38443;53.164;5.802;2023-03-21T08:38:43;101430.38;;;7.51;100.00
52535;BME280;38443;53.164;5.802;2023-03-21T08:41:12;101432.16;;;7.52;100.00
52535;BME280;38443;53.164;5.802;2023-03-21T08:43:37;101432.16;;;7.52;100.00
52535;BME280;38443;53.164;5.802;2023-03-21T08:46:02;101427.72;;;7.53;100.00
52535;BME280;38443;53.164;5.802;2023-03-21T08:48:28;101427.72;;;7.53;100.00
52535;BME280;38443;53.164;5.802;2023-03-21T08:50:53;101425.91;;;7.56;100.00
52535;BME280;38443;53.164;5.802;2023-03-21T08:53:19;101414.34;;;7.57;100.00
52535;BME280;38443;53.164;5.802;2023-03-21T08:55:44;101427.66;;;7.57;100.00
52535;BME280;38443;53.164;5.802;2023-03-21T08:58:10;101417.88;;;7.63;100.00
52535;BME280;38443;53.164;5.802;2023-03-21T09:00:35;101420.50;;;7.67;100.00
52535;BME280;38443;53.164;5.802;2023-03-21T09:03:00;101422.22;;;7.71;100.00
52535;BME280;38443;53.164;5.802;2023-03-21T09:05:29;101416.91;;;7.71;100.00
52535;BME280;38443;53.164;5.802;2023-03-21T09:07:54;101408.94;;;7.70;100.00
52535;BME280;38443;53.164;5.802;2023-03-21T09:10:21;101410.66;;;7.77;100.00
52535;BME280;38443;53.164;5.802;2023-03-21T09:12:52;101408.91;;;7.76;100.00
52535;BME280;38443;53.164;5.802;2023-03-21T09:15:18;101411.53;;;7.77;100.00
52535;BME280;38443;53.164;5.802;2023-03-21T09:17:46;101405.31;;;7.77;100.00
52535;BME280;38443;53.164;5.802;2023-03-21T09:20:14;101398.19;;;7.79;100.00
52535;BME280;38443;53.164;5.802;2023-03-21T09:22:50;101400.84;;;7.81;100.00
52535;BME280;38443;53.164;5.802;2023-03-21T09:25:17;101402.59;;;7.82;100.00
52535;BME280;38443;53.164;5.802;2023-03-21T09:27:44;101391.94;;;7.82;100.00
52535;BME280;38443;53.164;5.802;2023-03-21T09:30:11;101391.97;;;7.78;100.00
52535;BME280;38443;53.164;5.802;2023-03-21T09:32:37;101384.88;;;7.77;100.00
52535;BME280;38443;53.164;5.802;2023-03-21T09:35:02;101396.50;;;7.72;100.00
52535;BME280;38443;53.164;5.802;2023-03-21T09:37:29;101384.94;;;7.71;100.00
52535;BME280;38443;53.164;5.802;2023-03-21T09:39:57;101382.31;;;7.68;100.00
52535;BME280;38443;53.164;5.802;2023-03-21T09:42:25;101392.97;;;7.64;100.00
52535;BME280;38443;53.164;5.802;2023-03-21T09:48:12;101390.25;;;7.71;100.00
52535;BME280;38443;53.164;5.802;2023-03-21T09:50:41;101378.66;;;7.77;100.00
52535;BME280;38443;53.164;5.802;2023-03-21T09:53:40;101385.75;;;7.79;100.00
52535;BME280;38443;53.164;5.802;2023-03-21T09:55:59;101374.13;;;7.90;100.00
52535;BME280;38443;53.164;5.802;2023-03-21T09:58:29;101376.72;;;7.96;100.00
52535;BME280;38443;53.164;5.802;2023-03-21T10:01:15;101377.53;;;8.03;100.00
52535;BME280;38443;53.164;5.802;2023-03-21T10:03:51;101373.94;;;8.10;100.00
52535;BME280;38443;53.164;5.802;2023-03-21T10:06:18;101372.94;;;8.17;100.00
52535;BME280;38443;53.164;5.802;2023-03-21T10:08:55;101366.59;;;8.27;100.00
52535;BME280;38443;53.164;5.802;2023-03-21T10:11:25;101362.09;;;8.34;100.00
52535;BME280;38443;53.164;5.802;2023-03-21T10:13:58;101362.03;;;8.40;100.00
52535;BME280;38443;53.164;5.802;2023-03-21T10:18:54;101362.69;;;8.59;100.00
52535;BME280;38443;53.164;5.802;2023-03-21T10:21:23;101359.84;;;8.73;100.00
52535;BME280;38443;53.164;5.802;2023-03-21T10:23:50;101364.00;;;8.94;100.00
52535;BME280;38443;53.164;5.802;2023-03-21T10:26:18;101355.75;;;9.12;100.00
52535;BME280;38443;53.164;5.802;2023-03-21T10:28:45;101351.94;;;9.29;100.00
52535;BME280;38443;53.164;5.802;2023-03-21T10:31:18;101349.94;;;9.40;100.00
52535;BME280;38443;53.164;5.802;2023-03-21T10:33:47;101342.81;;;9.42;100.00
52535;BME280;38443;53.164;5.802;2023-03-21T10:36:19;101334.81;;;9.41;100.00
52535;BME280;38443;53.164;5.802;2023-03-21T10:38:49;101324.25;;;9.34;100.00
52535;BME280;38443;53.164;5.802;2023-03-21T10:41:17;101321.50;;;9.37;100.00
52535;BME280;38443;53.164;5.802;2023-03-21T10:43:44;101315.19;;;9.42;100.00
52535;BME280;38443;53.164;5.802;2023-03-21T10:46:11;101310.91;;;9.31;100.00
52535;BME280;38443;53.164;5.802;2023-03-21T10:48:40;101302.88;;;9.34;100.00
52535;BME280;38443;53.164;5.802;2023-03-21T10:51:07;101307.31;;;9.34;100.00
52535;BME280;38443;53.164;5.802;2023-03-21T10:53:37;101292.22;;;9.31;100.00
52535;BME280;38443;53.164;5.802;2023-03-21T10:56:07;101301.91;;;9.37;100.00
52535;BME280;38443;53.164;5.802;2023-03-21T10:58:41;101301.84;;;9.40;100.00
52535;BME280;38443;53.164;5.802;2023-03-21T11:01:12;101302.66;;;9.45;100.00
52535;BME280;38443;53.164;5.802;2023-03-21T11:03:42;101295.50;;;9.49;100.00
52535;BME280;38443;53.164;5.802;2023-03-21T11:06:16;101293.47;;;9.60;100.00
52535;BME280;38443;53.164;5.802;2023-03-21T11:08:49;101282.78;;;9.60;100.00
52535;BME280;38443;53.164;5.802;2023-03-21T11:11:37;101283.59;;;9.65;100.00
52535;BME280;38443;53.164;5.802;2023-03-21T11:14:07;101282.66;;;9.68;100.00
52535;BME280;38443;53.164;5.802;2023-03-21T11:16:44;101279.13;;;9.67;100.00
52535;BME280;38443;53.164;5.802;2023-03-21T11:19:14;101288.09;;;9.63;100.00
52535;BME280;38443;53.164;5.802;2023-03-21T11:21:40;101276.44;;;9.67;100.00
52535;BME280;38443;53.164;5.802;2023-03-21T11:24:06;101282.78;;;9.60;100.00
52535;BME280;38443;53.164;5.802;2023-03-21T11:26:36;101274.63;;;9.69;100.00
52535;BME280;38443;53.164;5.802;2023-03-21T11:29:25;101271.13;;;9.66;100.00
52535;BME280;38443;53.164;5.802;2023-03-21T11:31:56;101273.72;;;9.70;100.00
52535;BME280;38443;53.164;5.802;2023-03-21T11:34:40;101286.25;;;9.67;100.00
52535;BME280;38443;53.164;5.802;2023-03-21T11:37:18;101272.03;;;9.66;100.00
52535;BME280;38443;53.164;5.802;2023-03-21T11:39:44;101288.94;;;9.67;100.00
52535;BME280;38443;53.164;5.802;2023-03-21T11:42:29;101277.56;;;9.54;100.00
52535;BME280;38443;53.164;5.802;2023-03-21T11:45:16;101285.56;;;9.54;100.00
52535;BME280;38443;53.164;5.802;2023-03-21T11:47:41;101289.97;;;9.58;100.00
52535;BME280;38443;53.164;5.802;2023-03-21T11:56:05;101283.84;;;9.51;100.00
52535;BME280;38443;53.164;5.802;2023-03-21T11:58:57;101278.50;;;9.51;100.00
52535;BME280;38443;53.164;5.802;2023-03-21T12:04:30;101271.44;;;9.49;100.00
52535;BME280;38443;53.164;5.802;2023-03-21T12:10:18;101260.78;;;9.47;100.00
52535;BME280;38443;53.164;5.802;2023-03-21T12:15:45;101245.06;;;9.78;100.00
52535;BME280;38443;53.164;5.802;2023-03-21T12:21:05;101238.63;;;9.87;100.00
52535;BME280;38443;53.164;5.802;2023-03-21T12:26:22;101236.06;;;9.83;100.00
52535;BME280;38443;53.164;5.802;2023-03-21T12:31:55;101217.25;;;9.86;100.00
52535;BME280;38443;53.164;5.802;2023-03-21T12:37:49;101215.53;;;9.85;100.00
52535;BME280;38443;53.164;5.802;2023-03-21T12:40:38;101211.84;;;9.90;100.00
52535;BME280;38443;53.164;5.802;2023-03-21T12:45:47;101211.75;;;9.95;100.00
52535;BME280;38443;53.164;5.802;2023-03-21T12:48:20;101214.34;;;9.98;100.00
52535;BME280;38443;53.164;5.802;2023-03-21T12:50:50;101212.56;;;9.98;100.00
52535;BME280;38443;53.164;5.802;2023-03-21T12:56:03;101205.47;;;9.96;100.00
52535;BME280;38443;53.164;5.802;2023-03-21T12:58:30;101211.50;;;10.06;100.00
52535;BME280;38443;53.164;5.802;2023-03-21T13:01:00;101191.66;;;10.16;100.00
52535;BME280;38443;53.164;5.802;2023-03-21T13:03:40;101193.31;;;10.22;100.00
52535;BME280;38443;53.164;5.802;2023-03-21T13:06:18;101187.13;;;10.19;100.00
52535;BME280;38443;53.164;5.802;2023-03-21T13:09:32;101185.44;;;10.15;100.00
52535;BME280;38443;53.164;5.802;2023-03-21T13:12:04;101183.47;;;10.24;100.00
52535;BME280;38443;53.164;5.802;2023-03-21T13:14:36;101190.53;;;10.26;100.00
52535;BME280;38443;53.164;5.802;2023-03-21T13:17:13;101173.63;;;10.26;100.00
52535;BME280;38443;53.164;5.802;2023-03-21T13:19:57;101178.00;;;10.30;100.00
52535;BME280;38443;53.164;5.802;2023-03-21T13:22:28;101182.16;;;10.45;100.00
52535;BME280;38443;53.164;5.802;2023-03-21T13:27:41;101160.31;;;10.62;100.00
52535;BME280;38443;53.164;5.802;2023-03-21T13:32:42;101151.13;;;10.72;100.00
52535;BME280;38443;53.164;5.802;2023-03-21T13:35:15;101149.47;;;10.68;100.00
52535;BME280;38443;53.164;5.802;2023-03-21T13:37:42;101133.72;;;10.55;100.00
52535;BME280;38443;53.164;5.802;2023-03-21T13:42:53;101147.25;;;10.49;100.00
52535;BME280;38443;53.164;5.802;2023-03-21T13:45:45;101137.59;;;10.42;100.00
52535;BME280;38443;53.164;5.802;2023-03-21T13:48:46;101125.97;;;10.43;100.00
52535;BME280;38443;53.164;5.802;2023-03-21T13:59:10;101120.56;;;11.15;100.00
52535;BME280;38443;53.164;5.802;2023-03-21T14:01:54;101109.06;;;11.11;100.00
52535;BME280;38443;53.164;5.802;2023-03-21T14:04:25;101102.88;;;11.09;100.00
52535;BME280;38443;53.164;5.802;2023-03-21T14:07:02;101099.25;;;11.10;100.00
52535;BME280;38443;53.164;5.802;2023-03-21T14:09:38;101090.38;;;11.08;100.00
52535;BME280;38443;53.164;5.802;2023-03-21T14:12:08;101089.47;;;11.09;100.00
52535;BME280;38443;53.164;5.802;2023-03-21T14:14:41;101085.84;;;11.10;100.00